createdAt,value
2022-07-25T00:00:48.698Z,0.00
2022-07-25T00:01:48.852Z,0.00
2022-07-25T00:02:48.669Z,0.00
2022-07-25T00:03:48.790Z,0.00
2022-07-25T00:04:48.718Z,0.00
2022-07-25T00:05:48.622Z,0.00
2022-07-25T00:06:48.627Z,0.00
2022-07-25T00:07:48.591Z,0.00
2022-07-25T00:08:48.598Z,0.00
2022-07-25T00:09:48.563Z,0.00
2022-07-25T00:10:48.554Z,0.00
2022-07-25T00:11:48.536Z,0.00
2022-07-25T00:12:48.525Z,0.00
2022-07-25T00:13:48.522Z,0.00
2022-07-25T00:14:48.485Z,0.00
2022-07-25T00:15:48.581Z,0.00
2022-07-25T00:16:48.459Z,0.00
2022-07-25T00:17:48.446Z,0.00
2022-07-25T00:18:48.491Z,0.00
2022-07-25T00:19:48.411Z,0.00
2022-07-25T00:20:48.397Z,0.00
2022-07-25T00:21:48.481Z,0.00
2022-07-25T00:22:48.380Z,0.00
2022-07-25T00:23:48.376Z,0.00
2022-07-25T00:24:48.354Z,0.00
2022-07-25T00:25:48.324Z,0.00
2022-07-25T00:26:48.308Z,0.00
2022-07-25T00:27:48.289Z,0.00
2022-07-25T00:28:48.279Z,0.00
2022-07-25T00:29:48.280Z,0.00
2022-07-25T00:30:48.343Z,0.00
2022-07-25T00:31:48.260Z,0.00
2022-07-25T00:32:48.218Z,0.00
2022-07-25T00:33:48.211Z,0.00
2022-07-25T00:34:48.189Z,0.00
2022-07-25T00:35:48.198Z,0.00
2022-07-25T00:36:48.167Z,0.00
2022-07-25T00:37:48.147Z,0.00
2022-07-25T00:38:48.135Z,0.00
2022-07-25T00:39:48.115Z,0.00
2022-07-25T00:40:54.703Z,0.00
2022-07-25T00:41:48.105Z,0.00
2022-07-25T00:42:48.067Z,0.00
2022-07-25T00:43:48.058Z,0.00
2022-07-25T00:44:48.042Z,0.00
2022-07-25T00:45:48.039Z,0.00
2022-07-25T00:46:48.029Z,0.00
2022-07-25T00:47:48.014Z,0.00
2022-07-25T00:48:48.089Z,0.00
2022-07-25T00:49:47.970Z,0.00
2022-07-25T00:50:47.955Z,0.00
2022-07-25T00:51:47.945Z,0.00
2022-07-25T00:52:47.945Z,0.00
2022-07-25T00:53:47.914Z,0.00
2022-07-25T00:54:47.907Z,0.00
2022-07-25T00:55:47.883Z,0.00
2022-07-25T00:56:47.885Z,0.00
2022-07-25T00:57:47.850Z,0.00
2022-07-25T00:58:47.848Z,0.00
2022-07-25T00:59:47.817Z,0.00
2022-07-25T01:00:47.806Z,0.00
2022-07-25T01:01:48.198Z,0.00
2022-07-25T01:02:47.844Z,0.00
2022-07-25T01:03:47.755Z,0.00
2022-07-25T01:04:47.745Z,0.00
2022-07-25T01:05:53.107Z,0.00
2022-07-25T01:06:47.716Z,0.00
2022-07-25T01:07:47.700Z,0.00
2022-07-25T01:08:47.704Z,0.00
2022-07-25T01:09:47.688Z,0.00
2022-07-25T01:10:47.657Z,0.00
2022-07-25T01:11:47.642Z,0.00
2022-07-25T01:12:47.623Z,0.00
2022-07-25T01:13:47.607Z,0.00
2022-07-25T01:14:47.618Z,0.00
2022-07-25T01:15:47.631Z,0.00
2022-07-25T01:16:47.566Z,0.00
2022-07-25T01:17:47.555Z,0.00
2022-07-25T01:18:47.563Z,0.00
2022-07-25T01:19:47.538Z,0.00
2022-07-25T01:20:47.520Z,0.00
2022-07-25T01:21:47.487Z,0.00
2022-07-25T01:22:47.530Z,0.00
2022-07-25T01:23:47.470Z,0.00
2022-07-25T01:24:47.445Z,0.00
2022-07-25T01:25:47.432Z,0.00
2022-07-25T01:26:47.416Z,0.00
2022-07-25T01:27:52.794Z,0.00
2022-07-25T01:28:47.404Z,0.00
2022-07-25T01:29:47.371Z,0.00
2022-07-25T01:30:47.429Z,0.00
2022-07-25T01:31:47.357Z,0.00
2022-07-25T01:32:47.347Z,0.00
2022-07-25T01:33:47.311Z,0.00
2022-07-25T01:34:47.314Z,0.00
2022-07-25T01:35:47.292Z,0.00
2022-07-25T01:36:47.277Z,0.00
2022-07-25T01:37:47.266Z,0.00
2022-07-25T01:38:47.233Z,0.00
2022-07-25T01:39:47.226Z,0.00
2022-07-25T01:40:47.203Z,0.00
2022-07-25T01:41:47.208Z,0.00
2022-07-25T01:42:47.187Z,0.00
2022-07-25T01:43:47.157Z,0.00
2022-07-25T01:44:47.138Z,0.00
2022-07-25T01:45:47.193Z,0.00
2022-07-25T01:46:47.177Z,0.00
2022-07-25T01:47:47.097Z,0.00
2022-07-25T01:48:47.167Z,0.00
2022-07-25T01:49:47.071Z,0.00
2022-07-25T01:50:47.052Z,0.00
2022-07-25T01:51:47.070Z,0.00
2022-07-25T01:52:47.023Z,0.00
2022-07-25T01:53:47.020Z,0.00
2022-07-25T01:54:46.992Z,0.00
2022-07-25T01:55:46.975Z,0.00
2022-07-25T01:56:48.243Z,0.00
2022-07-25T01:57:50.046Z,0.00
2022-07-25T01:58:46.931Z,0.00
2022-07-25T01:59:46.917Z,0.00
2022-07-25T02:00:46.924Z,0.00
2022-07-25T02:01:46.932Z,0.00
2022-07-25T02:02:46.863Z,0.00
2022-07-25T02:03:48.936Z,0.00
2022-07-25T02:04:46.966Z,0.00
2022-07-25T02:05:46.864Z,0.00
2022-07-25T02:06:46.806Z,0.00
2022-07-25T02:07:46.797Z,0.00
2022-07-25T02:08:46.782Z,0.00
2022-07-25T02:09:46.775Z,0.00
2022-07-25T02:10:46.769Z,0.00
2022-07-25T02:11:46.730Z,0.00
2022-07-25T02:12:46.721Z,0.00
2022-07-25T02:13:46.704Z,0.00
2022-07-25T02:14:46.694Z,0.00
2022-07-25T02:15:46.686Z,0.00
2022-07-25T02:16:46.702Z,0.00
2022-07-25T02:17:46.639Z,0.00
2022-07-25T02:18:46.632Z,0.00
2022-07-25T02:19:46.608Z,0.00
2022-07-25T02:20:46.611Z,0.00
2022-07-25T02:21:46.575Z,0.00
2022-07-25T02:22:46.563Z,0.00
2022-07-25T02:23:46.564Z,0.00
2022-07-25T02:24:46.534Z,0.00
2022-07-25T02:25:46.512Z,0.00
2022-07-25T02:26:46.501Z,0.00
2022-07-25T02:27:46.498Z,0.00
2022-07-25T02:28:46.471Z,0.00
2022-07-25T02:29:46.456Z,0.00
2022-07-25T02:30:46.527Z,0.00
2022-07-25T02:31:46.452Z,0.00
2022-07-25T02:32:46.409Z,0.00
2022-07-25T02:33:46.397Z,0.00
2022-07-25T02:34:46.377Z,0.00
2022-07-25T02:35:46.362Z,0.00
2022-07-25T02:36:46.348Z,0.00
2022-07-25T02:37:46.349Z,0.00
2022-07-25T02:38:46.320Z,0.00
2022-07-25T02:39:46.299Z,0.00
2022-07-25T02:40:46.285Z,0.00
2022-07-25T02:41:46.281Z,0.00
2022-07-25T02:42:46.274Z,0.00
2022-07-25T02:43:46.241Z,0.00
2022-07-25T02:44:46.247Z,0.00
2022-07-25T02:45:46.268Z,0.00
2022-07-25T02:46:46.197Z,0.00
2022-07-25T02:47:46.185Z,0.00
2022-07-25T02:48:46.205Z,0.00
2022-07-25T02:49:46.161Z,0.00
2022-07-25T02:50:46.128Z,0.00
2022-07-25T02:51:46.115Z,0.00
2022-07-25T02:52:46.097Z,0.00
2022-07-25T02:53:57.108Z,0.00
2022-07-25T02:54:46.084Z,0.00
2022-07-25T02:55:46.089Z,0.00
2022-07-25T02:56:46.037Z,0.00
2022-07-25T02:57:46.023Z,0.00
2022-07-25T02:58:46.008Z,0.00
2022-07-25T02:59:46.009Z,0.00
2022-07-25T03:00:45.979Z,0.00
2022-07-25T03:01:46.036Z,0.00
2022-07-25T03:02:45.947Z,0.00
2022-07-25T03:03:46.030Z,0.00
2022-07-25T03:04:45.914Z,0.00
2022-07-25T03:05:45.927Z,0.00
2022-07-25T03:06:45.886Z,0.00
2022-07-25T03:07:45.871Z,0.00
2022-07-25T03:08:45.869Z,0.00
2022-07-25T03:09:45.837Z,0.00
2022-07-25T03:10:45.824Z,0.00
2022-07-25T03:11:45.827Z,0.00
2022-07-25T03:12:45.793Z,0.00
2022-07-25T03:13:45.774Z,0.00
2022-07-25T03:14:45.763Z,0.00
2022-07-25T03:15:45.755Z,0.00
2022-07-25T03:16:45.779Z,0.00
2022-07-25T03:17:45.717Z,0.00
2022-07-25T03:18:45.701Z,0.00
2022-07-25T03:19:45.683Z,0.00
2022-07-25T03:20:45.668Z,4.00
2022-07-25T03:21:45.651Z,4.00
2022-07-25T03:22:45.652Z,4.00
2022-07-25T03:23:50.457Z,0.00
2022-07-25T03:24:45.605Z,0.00
2022-07-25T03:25:45.602Z,4.00
2022-07-25T03:26:45.578Z,0.00
2022-07-25T03:27:45.577Z,4.00
2022-07-25T03:28:45.545Z,4.00
2022-07-25T03:29:45.528Z,4.00
2022-07-25T03:30:45.519Z,8.00
2022-07-25T03:31:45.528Z,8.00
2022-07-25T03:32:45.498Z,4.00
2022-07-25T03:33:45.486Z,8.00
2022-07-25T03:34:45.466Z,12.00
2022-07-25T03:35:45.431Z,8.00
2022-07-25T03:36:45.414Z,12.00
2022-07-25T03:37:45.408Z,16.00
2022-07-25T03:38:45.386Z,16.00
2022-07-25T03:39:45.388Z,20.00
2022-07-25T03:40:45.351Z,24.00
2022-07-25T03:41:45.334Z,24.00
2022-07-25T03:42:45.319Z,28.00
2022-07-25T03:43:45.322Z,32.00
2022-07-25T03:44:45.291Z,36.00
2022-07-25T03:45:45.342Z,36.00
2022-07-25T03:46:45.256Z,40.00
2022-07-25T03:47:45.247Z,44.00
2022-07-25T03:48:45.332Z,48.00
2022-07-25T03:49:45.242Z,52.00
2022-07-25T03:50:45.212Z,52.00
2022-07-25T03:51:45.180Z,60.00
2022-07-25T03:52:45.161Z,64.00
2022-07-25T03:53:45.148Z,72.00
2022-07-25T03:54:45.137Z,80.00
2022-07-25T03:55:45.133Z,80.00
2022-07-25T03:56:45.106Z,88.00
2022-07-25T03:57:45.093Z,96.00
2022-07-25T03:58:45.070Z,104.00
2022-07-25T03:59:45.053Z,116.00
2022-07-25T04:00:45.106Z,128.00
2022-07-25T04:01:45.025Z,144.00
2022-07-25T04:02:45.097Z,152.00
2022-07-25T04:03:45.025Z,164.00
2022-07-25T04:04:44.984Z,176.00
2022-07-25T04:05:47.553Z,184.00
2022-07-25T04:06:44.967Z,192.00
2022-07-25T04:07:44.931Z,192.00
2022-07-25T04:08:44.928Z,192.00
2022-07-25T04:09:44.906Z,188.00
2022-07-25T04:10:44.886Z,192.00
2022-07-25T04:11:44.883Z,192.00
2022-07-25T04:12:44.869Z,196.00
2022-07-25T04:13:44.843Z,204.00
2022-07-25T04:14:44.828Z,208.00
2022-07-25T04:15:44.809Z,220.00
2022-07-25T04:16:44.825Z,224.00
2022-07-25T04:17:44.793Z,236.00
2022-07-25T04:18:44.755Z,248.00
2022-07-25T04:19:44.741Z,256.00
2022-07-25T04:20:44.723Z,268.00
2022-07-25T04:21:44.713Z,276.00
2022-07-25T04:22:46.891Z,284.00
2022-07-25T04:23:44.680Z,300.00
2022-07-25T04:24:44.663Z,304.00
2022-07-25T04:25:44.648Z,300.00
2022-07-25T04:26:44.630Z,308.00
2022-07-25T04:27:44.621Z,304.00
2022-07-25T04:28:44.659Z,300.00
2022-07-25T04:29:44.586Z,284.00
2022-07-25T04:30:44.570Z,292.00
2022-07-25T04:31:44.625Z,324.00
2022-07-25T04:32:44.541Z,336.00
2022-07-25T04:33:51.087Z,356.00
2022-07-25T04:34:44.534Z,380.00
2022-07-25T04:35:44.487Z,416.00
2022-07-25T04:36:44.494Z,444.00
2022-07-25T04:37:44.459Z,468.00
2022-07-25T04:38:44.456Z,476.00
2022-07-25T04:39:44.448Z,488.00
2022-07-25T04:40:44.413Z,492.00
2022-07-25T04:41:44.411Z,456.00
2022-07-25T04:42:46.493Z,496.00
2022-07-25T04:43:48.462Z,504.00
2022-07-25T04:44:44.356Z,488.00
2022-07-25T04:45:44.385Z,432.00
2022-07-25T04:46:44.327Z,440.00
2022-07-25T04:47:44.305Z,444.00
2022-07-25T04:48:46.420Z,564.00
2022-07-25T04:49:44.295Z,612.00
2022-07-25T04:50:44.285Z,516.00
2022-07-25T04:51:44.245Z,560.00
2022-07-25T04:52:44.237Z,640.00
2022-07-25T04:53:44.220Z,556.00
2022-07-25T04:54:44.207Z,436.00
2022-07-25T04:55:44.185Z,428.00
2022-07-25T04:56:45.572Z,436.00
2022-07-25T04:57:44.154Z,456.00
2022-07-25T04:58:44.151Z,496.00
2022-07-25T04:59:44.129Z,472.00
2022-07-25T05:00:44.148Z,472.00
2022-07-25T05:01:44.157Z,492.00
2022-07-25T05:02:44.114Z,520.00
2022-07-25T05:03:49.806Z,540.00
2022-07-25T05:04:45.537Z,572.00
2022-07-25T05:05:44.058Z,592.00
2022-07-25T05:06:44.022Z,596.00
2022-07-25T05:07:44.030Z,612.00
2022-07-25T05:08:43.994Z,644.00
2022-07-25T05:09:44.001Z,664.00
2022-07-25T05:10:43.965Z,692.00
2022-07-25T05:11:47.415Z,700.00
2022-07-25T05:12:43.935Z,716.00
2022-07-25T05:13:43.915Z,708.00
2022-07-25T05:14:43.899Z,692.00
2022-07-25T05:15:43.889Z,712.00
2022-07-25T05:16:43.982Z,700.00
2022-07-25T05:17:43.878Z,712.00
2022-07-25T05:18:43.859Z,724.00
2022-07-25T05:19:43.824Z,724.00
2022-07-25T05:20:43.809Z,724.00
2022-07-25T05:21:43.820Z,740.00
2022-07-25T05:22:43.805Z,736.00
2022-07-25T05:23:43.785Z,732.00
2022-07-25T05:24:43.749Z,752.00
2022-07-25T05:25:43.736Z,772.00
2022-07-25T05:26:43.720Z,792.00
2022-07-25T05:27:43.710Z,748.00
2022-07-25T05:28:43.705Z,736.00
2022-07-25T05:29:43.673Z,720.00
2022-07-25T05:30:43.671Z,724.00
2022-07-25T05:31:43.702Z,708.00
2022-07-25T05:32:43.628Z,708.00
2022-07-25T05:33:43.638Z,720.00
2022-07-25T05:34:43.622Z,712.00
2022-07-25T05:35:43.588Z,720.00
2022-07-25T05:36:47.146Z,708.00
2022-07-25T05:37:43.550Z,700.00
2022-07-25T05:38:43.561Z,708.00
2022-07-25T05:39:43.523Z,720.00
2022-07-25T05:40:43.518Z,740.00
2022-07-25T05:41:43.494Z,756.00
2022-07-25T05:42:43.511Z,776.00
2022-07-25T05:43:43.533Z,784.00
2022-07-25T05:44:43.524Z,768.00
2022-07-25T05:45:43.503Z,744.00
2022-07-25T05:46:43.556Z,752.00
2022-07-25T05:47:43.409Z,780.00
2022-07-25T05:48:43.453Z,820.00
2022-07-25T05:49:43.374Z,844.00
2022-07-25T05:50:43.367Z,884.00
2022-07-25T05:51:43.367Z,856.00
2022-07-25T05:52:43.333Z,816.00
2022-07-25T05:53:43.343Z,756.00
2022-07-25T05:54:43.301Z,776.00
2022-07-25T05:55:43.288Z,784.00
2022-07-25T06:09:50.153Z,1188.00
2022-07-25T06:10:50.120Z,1200.00
2022-07-25T06:11:58.132Z,1236.00
2022-07-25T06:12:50.106Z,1280.00
2022-07-25T06:13:50.073Z,1304.00
2022-07-25T06:14:50.116Z,1360.00
2022-07-25T06:15:50.114Z,1404.00
2022-07-25T06:16:50.070Z,1464.00
2022-07-25T06:17:50.073Z,1568.00
2022-07-25T06:18:50.011Z,1644.00
2022-07-25T06:19:49.984Z,1760.00
2022-07-25T06:20:49.974Z,1852.00
2022-07-25T06:21:49.958Z,1880.00
2022-07-25T06:22:49.937Z,1904.00
2022-07-25T06:23:49.951Z,1920.00
2022-07-25T06:24:49.906Z,1956.00
2022-07-25T06:25:50.276Z,1948.00
2022-07-25T06:26:49.878Z,1936.00
2022-07-25T06:27:49.867Z,1896.00
2022-07-25T06:28:49.871Z,1880.00
2022-07-25T06:29:49.841Z,1808.00
2022-07-25T06:30:49.841Z,1716.00
2022-07-25T06:31:49.869Z,1608.00
2022-07-25T06:32:49.798Z,1532.00
2022-07-25T06:33:49.780Z,1488.00
2022-07-25T06:34:49.777Z,1436.00
2022-07-25T06:35:49.753Z,1428.00
2022-07-25T06:36:49.740Z,1440.00
2022-07-25T06:37:49.724Z,1468.00
2022-07-25T06:38:49.704Z,1544.00
2022-07-25T06:39:49.711Z,1616.00
2022-07-25T06:40:49.679Z,1648.00
2022-07-25T06:41:49.665Z,1700.00
2022-07-25T06:42:49.652Z,1732.00
2022-07-25T06:43:49.639Z,1724.00
2022-07-25T06:44:49.641Z,1712.00
2022-07-25T06:45:49.634Z,1716.00
2022-07-25T06:46:50.180Z,1688.00
2022-07-25T06:47:49.579Z,1676.00
2022-07-25T06:48:49.640Z,1668.00
2022-07-25T06:49:49.552Z,1720.00
2022-07-25T06:50:49.551Z,1772.00
2022-07-25T06:51:49.540Z,1840.00
2022-07-25T06:52:49.511Z,1872.00
2022-07-25T06:53:49.493Z,1932.00
2022-07-25T06:54:49.508Z,1932.00
2022-07-25T06:55:49.486Z,1968.00
2022-07-25T06:56:49.461Z,2024.00
2022-07-25T06:57:49.439Z,2052.00
2022-07-25T06:58:49.426Z,2072.00
2022-07-25T06:59:49.412Z,2072.00
2022-07-25T07:00:49.468Z,2112.00
2022-07-25T07:01:51.671Z,2140.00
2022-07-25T07:02:49.390Z,2136.00
2022-07-25T07:03:49.413Z,2124.00
2022-07-25T07:04:49.347Z,2152.00
2022-07-25T07:05:49.329Z,2180.00
2022-07-25T07:06:49.321Z,2192.00
2022-07-25T07:07:49.317Z,2204.00
2022-07-25T07:08:49.293Z,2256.00
2022-07-25T07:11:31.554Z,2260.00
2022-07-25T07:12:31.564Z,2264.00
2022-07-25T07:13:31.610Z,2280.00
2022-07-25T07:14:31.512Z,2288.00
2022-07-25T07:15:31.477Z,2272.00
2022-07-25T07:16:31.567Z,2224.00
2022-07-25T07:17:31.490Z,2224.00
2022-07-25T07:18:31.440Z,2240.00
2022-07-25T07:19:31.426Z,2276.00
2022-07-25T07:20:31.437Z,2292.00
2022-07-25T07:21:31.399Z,2320.00
2022-07-25T07:22:31.385Z,2372.00
2022-07-25T07:23:31.384Z,2456.00
2022-07-25T07:24:31.363Z,2548.00
2022-07-25T07:25:31.369Z,2604.00
2022-07-25T07:26:31.336Z,2696.00
2022-07-25T07:27:31.320Z,2788.00
2022-07-25T07:28:31.309Z,2880.00
2022-07-25T07:29:31.298Z,2976.00
2022-07-25T07:30:58.307Z,3012.00
2022-07-25T07:31:31.374Z,3000.00
2022-07-25T07:32:31.270Z,2988.00
2022-07-25T07:33:31.241Z,2940.00
2022-07-25T07:34:31.239Z,2820.00
2022-07-25T07:35:31.241Z,2640.00
2022-07-25T07:36:31.207Z,2452.00
2022-07-25T07:37:35.861Z,2376.00
2022-07-25T07:38:31.179Z,2216.00
2022-07-25T07:39:31.164Z,2052.00
2022-07-25T07:40:31.175Z,1936.00
2022-07-25T07:41:31.134Z,1880.00
2022-07-25T07:42:31.141Z,1876.00
2022-07-25T07:43:31.109Z,1884.00
2022-07-25T07:44:31.098Z,1916.00
2022-07-25T07:45:31.082Z,1944.00
2022-07-25T07:46:31.184Z,1984.00
2022-07-25T07:47:31.060Z,1996.00
2022-07-25T07:48:31.279Z,1976.00
2022-07-25T07:49:31.034Z,1964.00
2022-07-25T07:50:31.021Z,2012.00
2022-07-25T07:51:31.007Z,2084.00
2022-07-25T07:52:30.998Z,2176.00
2022-07-25T07:53:31.010Z,2284.00
2022-07-25T07:54:30.970Z,2372.00
2022-07-25T07:55:30.952Z,2428.00
2022-07-25T07:56:30.941Z,2444.00
2022-07-25T07:57:30.927Z,2472.00
2022-07-25T07:58:30.914Z,2516.00
2022-07-25T07:59:30.954Z,2544.00
2022-07-25T08:00:30.894Z,2620.00
2022-07-25T08:01:30.924Z,2696.00
2022-07-25T08:02:30.931Z,2772.00
2022-07-25T08:03:30.851Z,2792.00
2022-07-25T08:04:30.837Z,2744.00
2022-07-25T08:05:30.846Z,2724.00
2022-07-25T08:06:30.821Z,2596.00
2022-07-25T08:07:30.798Z,2448.00
2022-07-25T08:08:31.679Z,2344.00
2022-07-25T08:09:30.781Z,2316.00
2022-07-25T08:10:30.761Z,2304.00
2022-07-25T08:11:30.766Z,2372.00
2022-07-25T08:12:30.743Z,2408.00
2022-07-25T08:13:30.834Z,2412.00
2022-07-25T08:14:30.709Z,2444.00
2022-07-25T08:15:30.697Z,2548.00
2022-07-25T08:16:30.794Z,2588.00
2022-07-25T08:17:30.671Z,2592.00
2022-07-25T08:18:30.673Z,2504.00
2022-07-25T08:19:30.648Z,2348.00
2022-07-25T08:20:38.710Z,2160.00
2022-07-25T08:21:30.638Z,2020.00
2022-07-25T08:22:30.611Z,1940.00
2022-07-25T08:23:30.596Z,1864.00
2022-07-25T08:24:30.577Z,1864.00
2022-07-25T08:25:30.572Z,1932.00
2022-07-25T08:26:30.578Z,2008.00
2022-07-25T08:27:30.547Z,2044.00
2022-07-25T08:28:30.538Z,2040.00
2022-07-25T08:29:30.519Z,2024.00
2022-07-25T08:30:30.506Z,1984.00
2022-07-25T08:31:30.557Z,1952.00
2022-07-25T08:32:30.495Z,1924.00
2022-07-25T08:33:30.497Z,1928.00
2022-07-25T08:34:30.451Z,2024.00
2022-07-25T08:35:30.454Z,2112.00
2022-07-25T08:36:34.596Z,2168.00
2022-07-25T08:37:30.417Z,2172.00
2022-07-25T08:38:30.420Z,2192.00
2022-07-25T08:39:30.399Z,2100.00
2022-07-25T08:40:30.378Z,2092.00
2022-07-25T08:41:30.366Z,2040.00
2022-07-25T08:42:30.352Z,1964.00
2022-07-25T08:43:30.349Z,1832.00
2022-07-25T08:44:30.323Z,1768.00
2022-07-25T08:45:30.309Z,1784.00
2022-07-25T08:46:30.430Z,1760.00
2022-07-25T08:47:30.281Z,1684.00
2022-07-25T08:48:30.400Z,1836.00
2022-07-25T08:49:30.257Z,2072.00
2022-07-25T08:50:30.251Z,2476.00
2022-07-25T08:51:30.249Z,2756.00
2022-07-25T08:52:30.234Z,2768.00
2022-07-25T08:53:33.251Z,2520.00
2022-07-25T08:54:30.216Z,2500.00
2022-07-25T08:55:30.197Z,3164.00
2022-07-25T08:56:30.165Z,3636.00
2022-07-25T08:57:30.154Z,3492.00
2022-07-25T08:58:30.149Z,3456.00
2022-07-25T08:59:30.153Z,3024.00
2022-07-25T09:00:30.133Z,2796.00
2022-07-25T09:01:34.574Z,3032.00
2022-07-25T09:02:30.218Z,3280.00
2022-07-25T09:03:30.074Z,3612.00
2022-07-25T09:04:30.067Z,3704.00
2022-07-25T09:05:30.077Z,3424.00
2022-07-25T09:06:30.049Z,3284.00
2022-07-25T09:07:30.023Z,3468.00
2022-07-25T09:08:30.015Z,3352.00
2022-07-25T09:09:30.002Z,3804.00
2022-07-25T09:10:30.011Z,3860.00
2022-07-25T09:11:30.034Z,3856.00
2022-07-25T09:12:29.962Z,3564.00
2022-07-25T09:13:29.950Z,4068.00
2022-07-25T09:14:29.938Z,4508.00
2022-07-25T09:15:29.971Z,4732.00
2022-07-25T09:16:29.947Z,4528.00
2022-07-25T09:17:29.929Z,4240.00
2022-07-25T09:18:29.888Z,4096.00
2022-07-25T09:19:29.877Z,4280.00
2022-07-25T09:20:29.858Z,4804.00
2022-07-25T09:21:29.871Z,5080.00
2022-07-25T09:22:29.866Z,5040.00
2022-07-25T09:23:29.828Z,5244.00
2022-07-25T09:24:29.806Z,4828.00
2022-07-25T09:25:29.803Z,4132.00
2022-07-25T09:26:29.783Z,3392.00
2022-07-25T09:27:29.795Z,3180.00
2022-07-25T09:28:29.778Z,3212.00
2022-07-25T09:29:29.752Z,3236.00
2022-07-25T09:30:29.740Z,3328.00
2022-07-25T09:31:29.799Z,3456.00
2022-07-25T09:32:29.731Z,3580.00
2022-07-25T09:33:29.703Z,3328.00
2022-07-25T09:34:29.692Z,3240.00
2022-07-25T09:35:29.679Z,3248.00
2022-07-25T09:36:29.679Z,3368.00
2022-07-25T09:37:29.678Z,3524.00
2022-07-25T09:38:29.643Z,3340.00
2022-07-25T09:39:29.634Z,3364.00
2022-07-25T09:40:32.138Z,4096.00
2022-07-25T09:41:29.628Z,6084.00
2022-07-25T09:42:29.594Z,3256.00
2022-07-25T09:43:29.585Z,3052.00
2022-07-25T09:44:29.606Z,3164.00
2022-07-25T09:45:31.579Z,3296.00
2022-07-25T09:46:29.589Z,3296.00
2022-07-25T09:47:29.537Z,3144.00
2022-07-25T09:48:29.559Z,2796.00
2022-07-25T09:49:29.513Z,2388.00
2022-07-25T09:50:29.527Z,2372.00
2022-07-25T09:51:29.489Z,2128.00
2022-07-25T09:52:29.482Z,1732.00
2022-07-25T09:53:29.471Z,1432.00
2022-07-25T09:54:29.451Z,1292.00
2022-07-25T09:55:29.457Z,1280.00
2022-07-25T09:56:29.434Z,1216.00
2022-07-25T09:57:29.414Z,1228.00
2022-07-25T09:58:29.402Z,1500.00
2022-07-25T09:59:29.390Z,1736.00
2022-07-25T10:00:29.443Z,2160.00
2022-07-25T10:01:29.407Z,2148.00
2022-07-25T10:02:29.397Z,2240.00
2022-07-25T10:03:29.339Z,2352.00
2022-07-25T10:04:29.337Z,2688.00
2022-07-25T10:05:29.316Z,2976.00
2022-07-25T10:06:29.322Z,3220.00
2022-07-25T10:07:31.555Z,3328.00
2022-07-25T10:08:29.279Z,3016.00
2022-07-25T10:09:29.269Z,2952.00
2022-07-25T10:10:29.268Z,2892.00
2022-07-25T10:11:29.240Z,4520.00
2022-07-25T10:12:29.227Z,2772.00
2022-07-25T10:13:29.219Z,2664.00
2022-07-25T10:14:29.219Z,3020.00
2022-07-25T10:15:29.198Z,3148.00
2022-07-25T10:16:29.211Z,3276.00
2022-07-25T10:17:29.176Z,5108.00
2022-07-25T10:18:29.170Z,6028.00
2022-07-25T10:19:29.143Z,4728.00
2022-07-25T10:20:29.145Z,3900.00
2022-07-25T10:21:29.235Z,3656.00
2022-07-25T10:22:53.759Z,2068.00
2022-07-25T10:23:29.103Z,1940.00
2022-07-25T10:24:29.098Z,2336.00
2022-07-25T10:25:29.078Z,5788.00
2022-07-25T10:26:29.064Z,17280.00
2022-07-25T10:27:29.042Z,20608.00
2022-07-25T10:28:29.044Z,15968.00
2022-07-25T10:29:29.028Z,22464.00
2022-07-25T10:30:29.070Z,21216.00
2022-07-25T10:31:29.040Z,17088.00
2022-07-25T10:32:28.979Z,15616.00
2022-07-25T10:33:28.974Z,10332.00
2022-07-25T10:34:28.972Z,15232.00
2022-07-25T10:35:28.947Z,12036.00
2022-07-25T10:36:28.941Z,11948.00
2022-07-25T10:37:28.935Z,6092.00
2022-07-25T10:38:28.926Z,6168.00
2022-07-25T10:39:28.927Z,5996.00
2022-07-25T10:40:28.909Z,6880.00
2022-07-25T10:41:28.891Z,5820.00
2022-07-25T10:42:28.877Z,9088.00
2022-07-25T10:43:28.859Z,8968.00
2022-07-25T10:44:28.856Z,8812.00
2022-07-25T10:45:28.861Z,4908.00
2022-07-25T10:46:28.884Z,4484.00
2022-07-25T10:47:28.821Z,4824.00
2022-07-25T10:48:28.940Z,3776.00
2022-07-25T10:49:32.318Z,3376.00
2022-07-25T10:50:53.543Z,4564.00
2022-07-25T10:51:28.811Z,3948.00
2022-07-25T10:52:28.772Z,3924.00
2022-07-25T10:53:28.762Z,4348.00
2022-07-25T10:54:28.757Z,16672.00
2022-07-25T10:55:28.749Z,5300.00
2022-07-25T10:56:28.743Z,13536.00
2022-07-25T10:57:31.897Z,8168.00
2022-07-25T10:58:28.721Z,4920.00
2022-07-25T10:59:28.725Z,4964.00
2022-07-25T11:00:28.698Z,5104.00
2022-07-25T11:01:28.794Z,5136.00
2022-07-25T11:02:28.706Z,11860.00
2022-07-25T11:03:28.664Z,8612.00
2022-07-25T11:04:28.664Z,5132.00
2022-07-25T11:05:28.672Z,4112.00
2022-07-25T11:06:28.675Z,3928.00
2022-07-25T11:07:28.653Z,4328.00
2022-07-25T11:08:28.625Z,4428.00
2022-07-25T11:09:28.717Z,4060.00
2022-07-25T11:10:28.597Z,3608.00
2022-07-25T11:11:28.586Z,3432.00
2022-07-25T11:12:28.578Z,3280.00
2022-07-25T11:13:28.583Z,5364.00
2022-07-25T11:14:28.554Z,3748.00
2022-07-25T11:15:28.545Z,3908.00
2022-07-25T11:16:28.558Z,3936.00
2022-07-25T11:17:28.528Z,4108.00
2022-07-25T11:18:28.533Z,5500.00
2022-07-25T11:19:28.500Z,5308.00
2022-07-25T11:20:28.514Z,5040.00
2022-07-25T11:21:28.487Z,5072.00
2022-07-25T11:22:28.463Z,5636.00
2022-07-25T11:23:28.476Z,5388.00
2022-07-25T11:24:28.463Z,5168.00
2022-07-25T11:25:28.437Z,5528.00
2022-07-25T11:26:28.416Z,5452.00
2022-07-25T11:27:28.429Z,7876.00
2022-07-25T11:28:28.415Z,11128.00
2022-07-25T11:29:28.387Z,8936.00
2022-07-25T11:30:28.377Z,5564.00
2022-07-25T11:31:28.443Z,5288.00
2022-07-25T11:32:28.412Z,7748.00
2022-07-25T11:33:28.342Z,7316.00
2022-07-25T11:34:28.359Z,6420.00
2022-07-25T11:35:28.342Z,6656.00
2022-07-25T11:36:28.308Z,11328.00
2022-07-25T11:37:28.300Z,5796.00
2022-07-25T11:38:28.288Z,4584.00
2022-07-25T11:39:28.298Z,7520.00
2022-07-25T11:40:28.270Z,4752.00
2022-07-25T11:41:28.258Z,9732.00
2022-07-25T11:42:28.247Z,12372.00
2022-07-25T11:43:28.236Z,18656.00
2022-07-25T11:44:28.255Z,18816.00
2022-07-25T11:45:28.247Z,7616.00
2022-07-25T11:46:28.238Z,7588.00
2022-07-25T11:47:28.234Z,6156.00
2022-07-25T11:48:28.237Z,7324.00
2022-07-25T11:49:28.175Z,6872.00
2022-07-25T11:50:28.196Z,10168.00
2022-07-25T11:51:28.156Z,8992.00
2022-07-25T11:52:28.144Z,8972.00
2022-07-25T11:53:28.134Z,9880.00
2022-07-25T11:54:28.127Z,8524.00
2022-07-25T11:55:28.117Z,6668.00
2022-07-25T11:56:43.918Z,4296.00
2022-07-25T11:57:28.096Z,3744.00
2022-07-25T11:58:28.094Z,3676.00
2022-07-25T11:59:28.072Z,4328.00
2022-07-25T12:00:28.096Z,3300.00
2022-07-25T12:01:28.056Z,3208.00
2022-07-25T12:02:28.233Z,3140.00
2022-07-25T12:03:28.106Z,3244.00
2022-07-25T12:04:28.025Z,3724.00
2022-07-25T12:05:28.017Z,3916.00
2022-07-25T12:06:28.032Z,3884.00
2022-07-25T12:07:28.002Z,4072.00
2022-07-25T12:08:27.982Z,4440.00
2022-07-25T12:09:27.975Z,3660.00
2022-07-25T12:10:27.967Z,4780.00
2022-07-25T12:11:27.985Z,3660.00
2022-07-25T12:12:27.958Z,3468.00
2022-07-25T12:13:27.934Z,3384.00
2022-07-25T12:14:32.313Z,3544.00
2022-07-25T12:15:27.910Z,3532.00
2022-07-25T12:16:27.953Z,3364.00
2022-07-25T12:17:27.912Z,3372.00
2022-07-25T12:18:27.879Z,12196.00
2022-07-25T12:19:27.869Z,3960.00
2022-07-25T12:20:27.858Z,3608.00
2022-07-25T12:21:27.857Z,4044.00
2022-07-25T12:22:27.842Z,4248.00
2022-07-25T12:23:27.837Z,4152.00
2022-07-25T12:24:27.826Z,4552.00
2022-07-25T12:25:31.003Z,4296.00
2022-07-25T12:26:27.792Z,4000.00
2022-07-25T12:27:27.776Z,3644.00
2022-07-25T12:28:27.788Z,3488.00
2022-07-25T12:29:27.756Z,3452.00
2022-07-25T12:30:27.846Z,3304.00
2022-07-25T12:31:27.787Z,3000.00
2022-07-25T12:32:27.725Z,2844.00
2022-07-25T12:33:27.719Z,3432.00
2022-07-25T12:34:27.723Z,4196.00
2022-07-25T12:35:27.696Z,4312.00
2022-07-25T12:36:27.681Z,4136.00
2022-07-25T12:37:27.674Z,4656.00
2022-07-25T12:38:27.658Z,10740.00
2022-07-25T12:39:27.667Z,8856.00
2022-07-25T12:40:27.636Z,7248.00
2022-07-25T12:43:09.677Z,4704.00
2022-07-25T12:44:09.672Z,3132.00
2022-07-25T12:45:09.674Z,4664.00
2022-07-25T12:46:09.726Z,5528.00